RPB7097 MUHA-MKJS
Flight info
| Callsign | RPB7097 |
|---|---|
| Flight time | 1h 2m |
| Altitude | 23000 |
| Route | KAVUL5A UCL G442 ADSEL OMAXI7 |
| Aircraft | B738/M-SDE2E3FGHIRWXY/LB1 |
Departure
| Time | 2026-05-07 10:59 |
|---|---|
| Airport | José Martí International Airport (MUHA) |
Arrival
| Time | 2026-05-07 12:02 |
|---|---|
| Airport | Sangster International Airport (MKJS) |
| Time | Latitude | Longitude | Altitude | Speed | Heading |
|---|---|---|---|---|---|
| 2026-05-07 10:39 | 22.99644 | -82.40593 | 218 ft | 0 kts | 299° |
| 2026-05-07 10:47 | 22.99641 | -82.40588 | 218 ft | 2 kts | 299° |
| 2026-05-07 10:47 | 22.99633 | -82.40572 | 218 ft | 2 kts | 299° |
| 2026-05-07 10:47 | 22.99625 | -82.40557 | 218 ft | 2 kts | 299° |
| 2026-05-07 10:48 | 22.99618 | -82.40542 | 218 ft | 2 kts | 285° |
| 2026-05-07 10:48 | 22.99619 | -82.40524 | 218 ft | 2 kts | 234° |
| 2026-05-07 10:48 | 22.99625 | -82.40518 | 218 ft | 1 kts | 208° |
| 2026-05-07 10:48 | 22.99627 | -82.40517 | 218 ft | 0 kts | 207° |
| 2026-05-07 10:50 | 22.99621 | -82.40520 | 218 ft | 6 kts | 205° |
| 2026-05-07 10:50 | 22.99591 | -82.40538 | 218 ft | 7 kts | 214° |
| 2026-05-07 10:50 | 22.99551 | -82.40577 | 218 ft | 9 kts | 228° |
| 2026-05-07 10:51 | 22.99511 | -82.40635 | 218 ft | 11 kts | 234° |
| 2026-05-07 10:51 | 22.99459 | -82.40718 | 218 ft | 15 kts | 234° |
| 2026-05-07 10:51 | 22.99403 | -82.40799 | 218 ft | 12 kts | 217° |
| 2026-05-07 10:51 | 22.99329 | -82.40788 | 218 ft | 12 kts | 150° |
| 2026-05-07 10:52 | 22.99251 | -82.40755 | 218 ft | 14 kts | 193° |
| 2026-05-07 10:52 | 22.99186 | -82.40819 | 218 ft | 13 kts | 232° |
| 2026-05-07 10:52 | 22.99126 | -82.40907 | 218 ft | 16 kts | 233° |
| 2026-05-07 10:52 | 22.99060 | -82.41006 | 218 ft | 16 kts | 234° |
| 2026-05-07 10:53 | 22.98990 | -82.41111 | 218 ft | 18 kts | 234° |
| 2026-05-07 10:53 | 22.98922 | -82.41214 | 218 ft | 15 kts | 234° |
| 2026-05-07 10:53 | 22.98860 | -82.41306 | 218 ft | 15 kts | 233° |
| 2026-05-07 10:53 | 22.98802 | -82.41392 | 218 ft | 13 kts | 234° |
| 2026-05-07 10:54 | 22.98747 | -82.41473 | 218 ft | 13 kts | 233° |
| 2026-05-07 10:54 | 22.98693 | -82.41554 | 218 ft | 13 kts | 233° |
| 2026-05-07 10:54 | 22.98640 | -82.41632 | 218 ft | 13 kts | 233° |
| 2026-05-07 10:54 | 22.98588 | -82.41706 | 218 ft | 11 kts | 234° |
| 2026-05-07 10:55 | 22.98544 | -82.41776 | 218 ft | 12 kts | 235° |
| 2026-05-07 10:55 | 22.98492 | -82.41854 | 218 ft | 13 kts | 234° |
| 2026-05-07 10:55 | 22.98441 | -82.41931 | 218 ft | 12 kts | 235° |
| 2026-05-07 10:55 | 22.98392 | -82.42006 | 218 ft | 12 kts | 233° |
| 2026-05-07 10:56 | 22.98345 | -82.42075 | 218 ft | 11 kts | 234° |
| 2026-05-07 10:56 | 22.98296 | -82.42147 | 218 ft | 10 kts | 232° |
| 2026-05-07 10:56 | 22.98257 | -82.42203 | 218 ft | 9 kts | 233° |
| 2026-05-07 10:56 | 22.98217 | -82.42260 | 218 ft | 10 kts | 233° |
| 2026-05-07 10:57 | 22.98176 | -82.42323 | 218 ft | 11 kts | 234° |
| 2026-05-07 10:57 | 22.98131 | -82.42392 | 218 ft | 12 kts | 235° |
| 2026-05-07 10:57 | 22.98082 | -82.42467 | 218 ft | 12 kts | 234° |
| 2026-05-07 10:57 | 22.98015 | -82.42514 | 218 ft | 12 kts | 173° |
| 2026-05-07 10:58 | 22.97945 | -82.42478 | 218 ft | 10 kts | 144° |
| 2026-05-07 10:58 | 22.97914 | -82.42415 | 218 ft | 10 kts | 82° |
| 2026-05-07 10:58 | 22.97938 | -82.42363 | 218 ft | 1 kts | 53° |
| 2026-05-07 10:58 | 22.98030 | -82.42232 | 218 ft | 58 kts | 52° |
| 2026-05-07 10:59 | 22.98407 | -82.41654 | 219 ft | 129 kts | 54° |
| 2026-05-07 10:59 | 22.99084 | -82.40672 | 366 ft | 192 kts | 54° |
| 2026-05-07 10:59 | 22.99963 | -82.39350 | 859 ft | 240 kts | 56° |
| 2026-05-07 10:59 | 23.00979 | -82.37784 | 1924 ft | 255 kts | 56° |
| 2026-05-07 11:00 | 23.01889 | -82.36227 | 3548 ft | 236 kts | 65° |
| 2026-05-07 11:00 | 23.02414 | -82.34579 | 4684 ft | 236 kts | 78° |
| 2026-05-07 11:00 | 23.02676 | -82.32746 | 5538 ft | 247 kts | 82° |
| 2026-05-07 11:00 | 23.02937 | -82.30903 | 6475 ft | 253 kts | 83° |
| 2026-05-07 11:01 | 23.03200 | -82.29003 | 7455 ft | 256 kts | 83° |
| 2026-05-07 11:01 | 23.03466 | -82.27072 | 8372 ft | 262 kts | 83° |
| 2026-05-07 11:01 | 23.03741 | -82.25059 | 9115 ft | 276 kts | 82° |
| 2026-05-07 11:01 | 23.04028 | -82.22952 | 9913 ft | 285 kts | 82° |
| 2026-05-07 11:02 | 23.04321 | -82.20789 | 10720 ft | 295 kts | 82° |
| 2026-05-07 11:02 | 23.04622 | -82.18572 | 11409 ft | 306 kts | 82° |
| 2026-05-07 11:02 | 23.04938 | -82.16240 | 12281 ft | 310 kts | 82° |
| 2026-05-07 11:02 | 23.05105 | -82.13924 | 13132 ft | 314 kts | 93° |
| 2026-05-07 11:03 | 23.04551 | -82.11621 | 13974 ft | 319 kts | 114° |
| 2026-05-07 11:03 | 23.03243 | -82.09651 | 14774 ft | 326 kts | 134° |
| 2026-05-07 11:03 | 23.01364 | -82.08284 | 15498 ft | 336 kts | 153° |
| 2026-05-07 11:03 | 22.99081 | -82.07481 | 16184 ft | 346 kts | 163° |
| 2026-05-07 11:04 | 22.96717 | -82.06854 | 16851 ft | 352 kts | 163° |
| 2026-05-07 11:04 | 22.94353 | -82.06180 | 17504 ft | 358 kts | 162° |
| 2026-05-07 11:04 | 22.91951 | -82.05422 | 18158 ft | 363 kts | 161° |
| 2026-05-07 11:04 | 22.89530 | -82.04585 | 18790 ft | 368 kts | 160° |
| 2026-05-07 11:05 | 22.87086 | -82.03681 | 19412 ft | 373 kts | 159° |
| 2026-05-07 11:05 | 22.84618 | -82.02733 | 20015 ft | 378 kts | 159° |
| 2026-05-07 11:05 | 22.82155 | -82.01771 | 20625 ft | 382 kts | 159° |
| 2026-05-07 11:05 | 22.79645 | -82.00781 | 21250 ft | 385 kts | 159° |
| 2026-05-07 11:06 | 22.77113 | -81.99776 | 21870 ft | 388 kts | 160° |
| 2026-05-07 11:06 | 22.74568 | -81.98762 | 22504 ft | 390 kts | 160° |
| 2026-05-07 11:06 | 22.72007 | -81.97735 | 22885 ft | 394 kts | 160° |
| 2026-05-07 11:06 | 22.69449 | -81.96706 | 23041 ft | 398 kts | 160° |
| 2026-05-07 11:07 | 22.66810 | -81.95646 | 23057 ft | 412 kts | 160° |
| 2026-05-07 11:07 | 22.64082 | -81.94550 | 23060 ft | 421 kts | 160° |
| 2026-05-07 11:07 | 22.61307 | -81.93435 | 23060 ft | 425 kts | 160° |
| 2026-05-07 11:07 | 22.58523 | -81.92318 | 23059 ft | 425 kts | 160° |
| 2026-05-07 11:08 | 22.55747 | -81.91204 | 23059 ft | 425 kts | 160° |
| 2026-05-07 11:08 | 22.52979 | -81.90094 | 23059 ft | 425 kts | 160° |
| 2026-05-07 11:08 | 22.50242 | -81.88997 | 23058 ft | 425 kts | 160° |
| 2026-05-07 11:08 | 22.47466 | -81.87885 | 23059 ft | 426 kts | 160° |
| 2026-05-07 11:09 | 22.44679 | -81.86768 | 23059 ft | 426 kts | 160° |
| 2026-05-07 11:09 | 22.41891 | -81.85652 | 23059 ft | 426 kts | 160° |
| 2026-05-07 11:09 | 22.39106 | -81.84537 | 23059 ft | 426 kts | 160° |
| 2026-05-07 11:09 | 22.36330 | -81.83427 | 23059 ft | 426 kts | 160° |
| 2026-05-07 11:10 | 22.33574 | -81.82325 | 23059 ft | 426 kts | 160° |
| 2026-05-07 11:10 | 22.30787 | -81.81211 | 23059 ft | 427 kts | 160° |
| 2026-05-07 11:10 | 22.27991 | -81.80094 | 23059 ft | 427 kts | 160° |
| 2026-05-07 11:10 | 22.25205 | -81.78981 | 23059 ft | 428 kts | 159° |
| 2026-05-07 11:11 | 22.22391 | -81.77858 | 23059 ft | 428 kts | 160° |
| 2026-05-07 11:11 | 22.19596 | -81.76743 | 23059 ft | 428 kts | 160° |
| 2026-05-07 11:11 | 22.16833 | -81.75641 | 23059 ft | 428 kts | 160° |
| 2026-05-07 11:11 | 22.14035 | -81.74526 | 23059 ft | 429 kts | 159° |
| 2026-05-07 11:12 | 22.11243 | -81.73413 | 23059 ft | 429 kts | 159° |
| 2026-05-07 11:12 | 22.08431 | -81.72292 | 23059 ft | 429 kts | 159° |
| 2026-05-07 11:12 | 22.05634 | -81.71179 | 23059 ft | 429 kts | 160° |
| 2026-05-07 11:12 | 22.02816 | -81.70057 | 23059 ft | 430 kts | 160° |
| 2026-05-07 11:13 | 22.00012 | -81.68942 | 23059 ft | 430 kts | 160° |
| 2026-05-07 11:13 | 21.97202 | -81.67824 | 23059 ft | 430 kts | 160° |
| 2026-05-07 11:13 | 21.94393 | -81.66707 | 23059 ft | 430 kts | 159° |
| 2026-05-07 11:13 | 21.91618 | -81.65605 | 23059 ft | 430 kts | 159° |
| 2026-05-07 11:14 | 21.88813 | -81.64485 | 23059 ft | 430 kts | 159° |
| 2026-05-07 11:14 | 21.85996 | -81.63365 | 23059 ft | 430 kts | 160° |
| 2026-05-07 11:14 | 21.83184 | -81.62248 | 23059 ft | 430 kts | 160° |
| 2026-05-07 11:14 | 21.80366 | -81.61131 | 23059 ft | 430 kts | 160° |
| 2026-05-07 11:15 | 21.77591 | -81.60032 | 23059 ft | 430 kts | 159° |
| 2026-05-07 11:15 | 21.74778 | -81.58918 | 23059 ft | 430 kts | 159° |
| 2026-05-07 11:15 | 21.71958 | -81.57802 | 23059 ft | 430 kts | 159° |
| 2026-05-07 11:15 | 21.69144 | -81.56688 | 23059 ft | 431 kts | 160° |
| 2026-05-07 11:16 | 21.66338 | -81.55578 | 23059 ft | 430 kts | 159° |
| 2026-05-07 11:16 | 21.63534 | -81.54425 | 23055 ft | 430 kts | 155° |
| 2026-05-07 11:16 | 21.60933 | -81.52911 | 23058 ft | 429 kts | 146° |
| 2026-05-07 11:16 | 21.58563 | -81.50948 | 23060 ft | 428 kts | 137° |
| 2026-05-07 11:17 | 21.56481 | -81.48721 | 23060 ft | 427 kts | 131° |
| 2026-05-07 11:17 | 21.54505 | -81.46335 | 23059 ft | 427 kts | 129° |
| 2026-05-07 11:17 | 21.52556 | -81.43921 | 23059 ft | 426 kts | 129° |
| 2026-05-07 11:17 | 21.50594 | -81.41527 | 23059 ft | 426 kts | 130° |
| 2026-05-07 11:18 | 21.48624 | -81.39148 | 23059 ft | 426 kts | 130° |
| 2026-05-07 11:18 | 21.46652 | -81.36780 | 23059 ft | 426 kts | 130° |
| 2026-05-07 11:18 | 21.44673 | -81.34413 | 23059 ft | 426 kts | 130° |
| 2026-05-07 11:18 | 21.42712 | -81.32072 | 23059 ft | 427 kts | 130° |
| 2026-05-07 11:19 | 21.40720 | -81.29699 | 23059 ft | 427 kts | 130° |
| 2026-05-07 11:19 | 21.38729 | -81.27329 | 23059 ft | 427 kts | 130° |
| 2026-05-07 11:19 | 21.36741 | -81.24955 | 23059 ft | 427 kts | 130° |
| 2026-05-07 11:19 | 21.34761 | -81.22586 | 23060 ft | 426 kts | 130° |
| 2026-05-07 11:20 | 21.32776 | -81.20218 | 23059 ft | 426 kts | 130° |
| 2026-05-07 11:20 | 21.30784 | -81.17844 | 23059 ft | 426 kts | 130° |
| 2026-05-07 11:20 | 21.28799 | -81.15483 | 23059 ft | 426 kts | 130° |
| 2026-05-07 11:20 | 21.26840 | -81.13140 | 23059 ft | 426 kts | 130° |
| 2026-05-07 11:21 | 21.24849 | -81.10769 | 23059 ft | 428 kts | 131° |
| 2026-05-07 11:21 | 21.22856 | -81.08402 | 23059 ft | 428 kts | 131° |
| 2026-05-07 11:21 | 21.20843 | -81.06016 | 23059 ft | 429 kts | 131° |
| 2026-05-07 11:21 | 21.18837 | -81.03640 | 23059 ft | 429 kts | 131° |
| 2026-05-07 11:22 | 21.16857 | -81.01297 | 23059 ft | 428 kts | 131° |
| 2026-05-07 11:22 | 21.14856 | -80.98928 | 23059 ft | 428 kts | 131° |
| 2026-05-07 11:22 | 21.12851 | -80.96556 | 23059 ft | 427 kts | 131° |
| 2026-05-07 11:22 | 21.10859 | -80.94201 | 23059 ft | 427 kts | 131° |
| 2026-05-07 11:23 | 21.08864 | -80.91843 | 23059 ft | 427 kts | 131° |
| 2026-05-07 11:23 | 21.06861 | -80.89474 | 23059 ft | 429 kts | 131° |
| 2026-05-07 11:23 | 21.04867 | -80.87098 | 23059 ft | 429 kts | 131° |
| 2026-05-07 11:23 | 21.02895 | -80.84748 | 23059 ft | 428 kts | 131° |
| 2026-05-07 11:24 | 21.00888 | -80.82357 | 23059 ft | 427 kts | 131° |
| 2026-05-07 11:24 | 20.98920 | -80.80013 | 23059 ft | 428 kts | 131° |
| 2026-05-07 11:24 | 20.96933 | -80.77648 | 23059 ft | 428 kts | 131° |
| 2026-05-07 11:24 | 20.94936 | -80.75273 | 23059 ft | 428 kts | 131° |
| 2026-05-07 11:25 | 20.92939 | -80.72898 | 23059 ft | 428 kts | 131° |
| 2026-05-07 11:25 | 20.90944 | -80.70527 | 23059 ft | 428 kts | 130° |
| 2026-05-07 11:25 | 20.88963 | -80.68172 | 23059 ft | 427 kts | 130° |
| 2026-05-07 11:25 | 20.86990 | -80.65828 | 23060 ft | 427 kts | 131° |
| 2026-05-07 11:26 | 20.84999 | -80.63465 | 23059 ft | 427 kts | 131° |
| 2026-05-07 11:26 | 20.83012 | -80.61096 | 23059 ft | 426 kts | 130° |
| 2026-05-07 11:26 | 20.81042 | -80.58743 | 23059 ft | 426 kts | 130° |
| 2026-05-07 11:26 | 20.79055 | -80.56376 | 23060 ft | 426 kts | 130° |
| 2026-05-07 11:27 | 20.77075 | -80.54022 | 23059 ft | 426 kts | 130° |
| 2026-05-07 11:27 | 20.75089 | -80.51663 | 23059 ft | 426 kts | 130° |
| 2026-05-07 11:27 | 20.73126 | -80.49332 | 23059 ft | 426 kts | 130° |
| 2026-05-07 11:27 | 20.71145 | -80.46968 | 23059 ft | 425 kts | 130° |
| 2026-05-07 11:28 | 20.69174 | -80.44626 | 23059 ft | 426 kts | 130° |
| 2026-05-07 11:28 | 20.67184 | -80.42269 | 23059 ft | 426 kts | 130° |
| 2026-05-07 11:28 | 20.65199 | -80.39921 | 23059 ft | 426 kts | 131° |
| 2026-05-07 11:28 | 20.63204 | -80.37562 | 23059 ft | 427 kts | 131° |
| 2026-05-07 11:29 | 20.61213 | -80.35210 | 23059 ft | 427 kts | 131° |
| 2026-05-07 11:29 | 20.59226 | -80.32863 | 23059 ft | 427 kts | 130° |
| 2026-05-07 11:29 | 20.57241 | -80.30518 | 23059 ft | 426 kts | 130° |
| 2026-05-07 11:29 | 20.55246 | -80.28163 | 23059 ft | 428 kts | 131° |
| 2026-05-07 11:30 | 20.53272 | -80.25835 | 23059 ft | 428 kts | 131° |
| 2026-05-07 11:30 | 20.51276 | -80.23476 | 23059 ft | 427 kts | 130° |
| 2026-05-07 11:30 | 20.49278 | -80.21139 | 23059 ft | 427 kts | 131° |
| 2026-05-07 11:30 | 20.47264 | -80.18793 | 23059 ft | 427 kts | 131° |
| 2026-05-07 11:31 | 20.45254 | -80.16451 | 23059 ft | 428 kts | 131° |
| 2026-05-07 11:31 | 20.43245 | -80.14110 | 23059 ft | 428 kts | 131° |
| 2026-05-07 11:31 | 20.41225 | -80.11758 | 23059 ft | 428 kts | 131° |
| 2026-05-07 11:31 | 20.39212 | -80.09413 | 23059 ft | 428 kts | 131° |
| 2026-05-07 11:32 | 20.35223 | -80.04769 | 23059 ft | 428 kts | 131° |
| 2026-05-07 11:32 | 20.33212 | -80.02429 | 23059 ft | 427 kts | 131° |
| 2026-05-07 11:32 | 20.31198 | -80.00085 | 23059 ft | 427 kts | 131° |
| 2026-05-07 11:33 | 20.29184 | -79.97743 | 23059 ft | 428 kts | 131° |
| 2026-05-07 11:33 | 20.27172 | -79.95392 | 23059 ft | 428 kts | 131° |
| 2026-05-07 11:33 | 20.25186 | -79.93071 | 23059 ft | 428 kts | 131° |
| 2026-05-07 11:33 | 20.23185 | -79.90739 | 23059 ft | 427 kts | 131° |
| 2026-05-07 11:34 | 20.21183 | -79.88402 | 23059 ft | 427 kts | 131° |
| 2026-05-07 11:34 | 20.19170 | -79.86050 | 23059 ft | 429 kts | 131° |
| 2026-05-07 11:34 | 20.17156 | -79.83707 | 23059 ft | 429 kts | 131° |
| 2026-05-07 11:34 | 20.15133 | -79.81358 | 23059 ft | 429 kts | 131° |
| 2026-05-07 11:35 | 20.13115 | -79.79018 | 23059 ft | 429 kts | 132° |
| 2026-05-07 11:35 | 20.11124 | -79.76711 | 23059 ft | 428 kts | 131° |
| 2026-05-07 11:35 | 20.09110 | -79.74379 | 23059 ft | 427 kts | 131° |
| 2026-05-07 11:35 | 20.07094 | -79.72044 | 23059 ft | 427 kts | 131° |
| 2026-05-07 11:36 | 20.05076 | -79.69709 | 23059 ft | 427 kts | 131° |
| 2026-05-07 11:36 | 20.03065 | -79.67382 | 23059 ft | 428 kts | 132° |
| 2026-05-07 11:36 | 20.01038 | -79.65038 | 23059 ft | 429 kts | 132° |
| 2026-05-07 11:36 | 19.99027 | -79.62700 | 23059 ft | 429 kts | 131° |
| 2026-05-07 11:37 | 19.97040 | -79.60384 | 23059 ft | 429 kts | 131° |
| 2026-05-07 11:37 | 19.95004 | -79.58014 | 23059 ft | 429 kts | 131° |
| 2026-05-07 11:37 | 19.92998 | -79.55682 | 23059 ft | 428 kts | 131° |
| 2026-05-07 11:37 | 19.91007 | -79.53367 | 23059 ft | 428 kts | 131° |
| 2026-05-07 11:38 | 19.89000 | -79.51036 | 23059 ft | 428 kts | 131° |
| 2026-05-07 11:38 | 19.86982 | -79.48690 | 23059 ft | 428 kts | 131° |
| 2026-05-07 11:38 | 19.84969 | -79.46371 | 23059 ft | 429 kts | 133° |
| 2026-05-07 11:38 | 19.82945 | -79.44038 | 23059 ft | 429 kts | 133° |
| 2026-05-07 11:39 | 19.80918 | -79.41702 | 23059 ft | 429 kts | 133° |
| 2026-05-07 11:39 | 19.79575 | -79.40154 | 23059 ft | 429 kts | 133° |
| 2026-05-07 11:39 | 19.77552 | -79.37823 | 23059 ft | 429 kts | 133° |
| 2026-05-07 11:39 | 19.75526 | -79.35490 | 23059 ft | 429 kts | 133° |
| 2026-05-07 11:40 | 19.73496 | -79.33152 | 23059 ft | 429 kts | 132° |
| 2026-05-07 11:40 | 19.71472 | -79.30822 | 23059 ft | 429 kts | 132° |
| 2026-05-07 11:40 | 19.69450 | -79.28494 | 23059 ft | 429 kts | 132° |
| 2026-05-07 11:40 | 19.67449 | -79.26192 | 23059 ft | 429 kts | 133° |
| 2026-05-07 11:41 | 19.65420 | -79.23858 | 23059 ft | 429 kts | 133° |
| 2026-05-07 11:41 | 19.63403 | -79.21519 | 23060 ft | 429 kts | 132° |
| 2026-05-07 11:41 | 19.61381 | -79.19175 | 23059 ft | 429 kts | 133° |
| 2026-05-07 11:41 | 19.59366 | -79.16850 | 23058 ft | 429 kts | 133° |
| 2026-05-07 11:42 | 19.57362 | -79.14544 | 23059 ft | 429 kts | 133° |
| 2026-05-07 11:42 | 19.55311 | -79.12190 | 23059 ft | 429 kts | 133° |
| 2026-05-07 11:42 | 19.53287 | -79.09866 | 23059 ft | 429 kts | 133° |
| 2026-05-07 11:42 | 19.51262 | -79.07544 | 23059 ft | 429 kts | 133° |
| 2026-05-07 11:43 | 19.49261 | -79.05250 | 23059 ft | 429 kts | 133° |
| 2026-05-07 11:43 | 19.47233 | -79.02925 | 23059 ft | 429 kts | 133° |
| 2026-05-07 11:43 | 19.45205 | -79.00602 | 23060 ft | 429 kts | 133° |
| 2026-05-07 11:43 | 19.43184 | -78.98287 | 23059 ft | 426 kts | 133° |
| 2026-05-07 11:44 | 19.41180 | -78.95990 | 23058 ft | 421 kts | 133° |
| 2026-05-07 11:44 | 19.39204 | -78.93726 | 23059 ft | 417 kts | 133° |
| 2026-05-07 11:44 | 19.37231 | -78.91466 | 22962 ft | 416 kts | 133° |
| 2026-05-07 11:44 | 19.35279 | -78.89231 | 22640 ft | 410 kts | 133° |
| 2026-05-07 11:45 | 19.33372 | -78.87049 | 22183 ft | 408 kts | 133° |
| 2026-05-07 11:45 | 19.31447 | -78.84846 | 21681 ft | 406 kts | 132° |
| 2026-05-07 11:45 | 19.29535 | -78.82659 | 21183 ft | 404 kts | 132° |
| 2026-05-07 11:45 | 19.27620 | -78.80470 | 20687 ft | 401 kts | 132° |
| 2026-05-07 11:46 | 19.25728 | -78.78306 | 20197 ft | 399 kts | 131° |
| 2026-05-07 11:46 | 19.23869 | -78.76182 | 19716 ft | 396 kts | 131° |
| 2026-05-07 11:46 | 19.21997 | -78.74043 | 19233 ft | 394 kts | 131° |
| 2026-05-07 11:46 | 19.20139 | -78.71920 | 18752 ft | 391 kts | 131° |
| 2026-05-07 11:47 | 19.18302 | -78.69817 | 18277 ft | 387 kts | 130° |
| 2026-05-07 11:47 | 19.16479 | -78.67716 | 17804 ft | 384 kts | 130° |
| 2026-05-07 11:47 | 19.14679 | -78.65646 | 17338 ft | 381 kts | 130° |
| 2026-05-07 11:47 | 19.12913 | -78.63623 | 16882 ft | 377 kts | 130° |
| 2026-05-07 11:48 | 19.11137 | -78.61594 | 16423 ft | 373 kts | 131° |
| 2026-05-07 11:48 | 19.09381 | -78.59591 | 15968 ft | 369 kts | 131° |
| 2026-05-07 11:48 | 19.07641 | -78.57608 | 15517 ft | 365 kts | 131° |
| 2026-05-07 11:48 | 19.05922 | -78.55651 | 15071 ft | 362 kts | 131° |
| 2026-05-07 11:49 | 19.04216 | -78.53708 | 14626 ft | 358 kts | 131° |
| 2026-05-07 11:49 | 19.02528 | -78.51786 | 14185 ft | 354 kts | 131° |
| 2026-05-07 11:49 | 19.00859 | -78.49886 | 13747 ft | 351 kts | 131° |
| 2026-05-07 11:49 | 18.99227 | -78.48030 | 13317 ft | 348 kts | 131° |
| 2026-05-07 11:50 | 18.97568 | -78.46143 | 12876 ft | 344 kts | 131° |
| 2026-05-07 11:50 | 18.95928 | -78.44362 | 12456 ft | 342 kts | 135° |
| 2026-05-07 11:50 | 18.94081 | -78.42771 | 12000 ft | 340 kts | 143° |
| 2026-05-07 11:50 | 18.92093 | -78.41428 | 11562 ft | 338 kts | 147° |
| 2026-05-07 11:51 | 18.90110 | -78.40157 | 11402 ft | 327 kts | 148° |
| 2026-05-07 11:51 | 18.88178 | -78.38934 | 11122 ft | 321 kts | 147° |
| 2026-05-07 11:51 | 18.86267 | -78.37725 | 10747 ft | 319 kts | 147° |
| 2026-05-07 11:51 | 18.84387 | -78.36534 | 10365 ft | 317 kts | 148° |
| 2026-05-07 11:52 | 18.82498 | -78.35337 | 10005 ft | 314 kts | 148° |
| 2026-05-07 11:52 | 18.80631 | -78.34154 | 9640 ft | 311 kts | 148° |
| 2026-05-07 11:52 | 18.78779 | -78.32981 | 9270 ft | 309 kts | 148° |
| 2026-05-07 11:52 | 18.76962 | -78.31830 | 8899 ft | 307 kts | 148° |
| 2026-05-07 11:53 | 18.75136 | -78.30673 | 8520 ft | 305 kts | 149° |
| 2026-05-07 11:53 | 18.73327 | -78.29527 | 8138 ft | 303 kts | 149° |
| 2026-05-07 11:53 | 18.71524 | -78.28385 | 7753 ft | 302 kts | 149° |
| 2026-05-07 11:53 | 18.69721 | -78.27239 | 7363 ft | 300 kts | 149° |
| 2026-05-07 11:54 | 18.67944 | -78.26105 | 6971 ft | 299 kts | 149° |
| 2026-05-07 11:54 | 18.66181 | -78.24984 | 6581 ft | 298 kts | 149° |
| 2026-05-07 11:54 | 18.64398 | -78.23853 | 6183 ft | 297 kts | 149° |
| 2026-05-07 11:54 | 18.62630 | -78.22732 | 5787 ft | 296 kts | 150° |
| 2026-05-07 11:55 | 18.60863 | -78.21614 | 5392 ft | 295 kts | 150° |
| 2026-05-07 11:55 | 18.59099 | -78.20498 | 4997 ft | 294 kts | 150° |
| 2026-05-07 11:55 | 18.57371 | -78.19405 | 4640 ft | 292 kts | 150° |
| 2026-05-07 11:55 | 18.55634 | -78.18308 | 4279 ft | 289 kts | 150° |
| 2026-05-07 11:56 | 18.53912 | -78.17220 | 3916 ft | 287 kts | 150° |
| 2026-05-07 11:56 | 18.52203 | -78.16140 | 3632 ft | 282 kts | 150° |
| 2026-05-07 11:56 | 18.50577 | -78.15113 | 3404 ft | 272 kts | 150° |
| 2026-05-07 11:56 | 18.48972 | -78.14099 | 3152 ft | 264 kts | 150° |
| 2026-05-07 11:57 | 18.47433 | -78.13127 | 3053 ft | 250 kts | 150° |
| 2026-05-07 11:57 | 18.45992 | -78.12218 | 3054 ft | 230 kts | 150° |
| 2026-05-07 11:57 | 18.44688 | -78.11394 | 3034 ft | 212 kts | 149° |
| 2026-05-07 11:57 | 18.43646 | -78.10395 | 2952 ft | 198 kts | 123° |
| 2026-05-07 11:58 | 18.43379 | -78.09042 | 2951 ft | 184 kts | 91° |
| 2026-05-07 11:58 | 18.43590 | -78.07743 | 2982 ft | 178 kts | 77° |
| 2026-05-07 11:58 | 18.43967 | -78.06512 | 2826 ft | 175 kts | 73° |
| 2026-05-07 11:58 | 18.44363 | -78.05329 | 2600 ft | 172 kts | 71° |
| 2026-05-07 11:59 | 18.44816 | -78.04162 | 2379 ft | 168 kts | 69° |
| 2026-05-07 11:59 | 18.45284 | -78.03051 | 2160 ft | 167 kts | 68° |
| 2026-05-07 11:59 | 18.45760 | -78.01941 | 1935 ft | 166 kts | 68° |
| 2026-05-07 11:59 | 18.46240 | -78.00833 | 1713 ft | 165 kts | 68° |
| 2026-05-07 12:00 | 18.46715 | -77.99740 | 1497 ft | 163 kts | 68° |
| 2026-05-07 12:00 | 18.47186 | -77.98656 | 1299 ft | 162 kts | 68° |
| 2026-05-07 12:00 | 18.47656 | -77.97574 | 1069 ft | 161 kts | 68° |
| 2026-05-07 12:00 | 18.48117 | -77.96515 | 856 ft | 158 kts | 68° |
| 2026-05-07 12:01 | 18.48572 | -77.95468 | 642 ft | 156 kts | 68° |
| 2026-05-07 12:01 | 18.49016 | -77.94451 | 461 ft | 149 kts | 68° |
| 2026-05-07 12:01 | 18.49435 | -77.93506 | 248 ft | 137 kts | 68° |
| 2026-05-07 12:01 | 18.49819 | -77.92622 | 83 ft | 127 kts | 69° |
| 2026-05-07 12:02 | 18.50152 | -77.91841 | 16 ft | 100 kts | 68° |
| 2026-05-07 12:02 | 18.50341 | -77.91400 | 15 ft | 36 kts | 65° |
| 2026-05-07 12:02 | 18.50425 | -77.91214 | 15 ft | 24 kts | 66° |
| 2026-05-07 12:02 | 18.50489 | -77.91064 | 15 ft | 18 kts | 64° |
| 2026-05-07 12:03 | 18.50529 | -77.90973 | 15 ft | 11 kts | 67° |
| 2026-05-07 12:03 | 18.50564 | -77.90887 | 15 ft | 11 kts | 64° |
| 2026-05-07 12:03 | 18.50596 | -77.90801 | 15 ft | 16 kts | 73° |
| 2026-05-07 12:03 | 18.50598 | -77.90695 | 15 ft | 13 kts | 96° |
| 2026-05-07 12:04 | 18.50592 | -77.90618 | 15 ft | 10 kts | 94° |
| 2026-05-07 12:04 | 18.50563 | -77.90596 | 15 ft | 6 kts | 221° |
| 2026-05-07 12:04 | 18.50533 | -77.90652 | 15 ft | 10 kts | 245° |
| 2026-05-07 12:04 | 18.50504 | -77.90719 | 15 ft | 10 kts | 245° |
| 2026-05-07 12:05 | 18.50475 | -77.90789 | 15 ft | 11 kts | 246° |
| 2026-05-07 12:05 | 18.50444 | -77.90861 | 15 ft | 11 kts | 245° |
| 2026-05-07 12:05 | 18.50409 | -77.90942 | 15 ft | 13 kts | 245° |
| 2026-05-07 12:05 | 18.50374 | -77.91025 | 15 ft | 13 kts | 246° |
| 2026-05-07 12:06 | 18.50335 | -77.91116 | 15 ft | 14 kts | 246° |
| 2026-05-07 12:06 | 18.50297 | -77.91207 | 15 ft | 12 kts | 246° |
| 2026-05-07 12:06 | 18.50261 | -77.91288 | 15 ft | 13 kts | 246° |
| 2026-05-07 12:06 | 18.50222 | -77.91378 | 15 ft | 12 kts | 246° |
| 2026-05-07 12:07 | 18.50189 | -77.91458 | 15 ft | 11 kts | 247° |
| 2026-05-07 12:07 | 18.50159 | -77.91526 | 15 ft | 12 kts | 236° |
| 2026-05-07 12:07 | 18.50099 | -77.91537 | 15 ft | 8 kts | 154° |
| 2026-05-07 12:07 | 18.50080 | -77.91528 | 15 ft | 0 kts | 156° |